Tiempo atmosférico en la estación meteorológica de Jaén, Jaén (582 m.)



Fecha
DESCASC
Temp. máxima en grados centígrados (hora)
DESCASC
Temp. mínima en grados centígrados (hora)
DESCASC
Temp. media en grados centígrados
DESCASC
Racha de viento máxima en m/sg (hora)
DESCASC
Velocidad máxima media en intervalos de 10 minutos(hora)
DESCASC
Precipitaciones diarias en mm
DESCASC
Precipitaciones de 00:00 a 06:00 en mm
DESCASC
Precipitaciones de 06:00 a 12:00 en mm
DESCASC
Precipitaciones de 12:00 a 18:00 en mm
DESCASC
Precipitaciones de 18:00 a 24:00 en mm
DESCASC
19-09-2019 28.4 (17:30) 16.9 (07:50) 22.6 4.72 (15:20) 2.78 (15:20) 0 0 0 0 0
18-09-2019 27.9 (16:20) 17.5 (07:40) 22.7 5.83 (18:10) 3.61 (18:30) 0 0 0 0 0
17-09-2019 27.7 (14:30) 19.4 (00:00) 23.6 10.56 (17:30) 6.11 (17:30) 0 0 0 0 0
16-09-2019 27.7 (17:30) 17.9 (00:00) 22.8 4.17 (15:00) 2.5 (00:10) 0 0 0 0 0
15-09-2019 25.7 (15:50) 18.9 (00:00) 22.3 6.11 (16:50) 4.17 (16:50) 0 0 0 0 0
14-09-2019 23.3 (18:00) 16 (00:00) 19.6 -- (--) -- (--) 18.8 0.4 18 0.4 0
13-09-2019 22.7 (18:00) 14 (00:00) 18.4 11.11 (07:20) 6.67 (07:10) 28.6 24.2 3.8 0 0.6
12-09-2019 21.3 (16:50) 13.7 (00:00) 17.5 7.78 (10:00) 3.89 (10:00) 20.6 0.8 0 0 19.8
11-09-2019 23 (18:00) 13.7 (00:00) 18.3 10.56 (19:30) 4.44 (20:30) 0.2 0.2 0 0 0
10-09-2019 24.3 (00:00) 17.9 (08:10) 21.1 -- (--) -- (--) 0 0 0 0 0
09-09-2019 29.2 (17:40) 17.9 (08:30) 23.6 10.28 (23:40) 5.28 (23:40) 0 0 0 0 0
08-09-2019 27.2 (15:50) 17.5 (00:00) 22.4 11.11 (00:30) 6.67 (17:50) 12.6 0.4 0 12 0.2
07-09-2019 30.1 (13:50) 21.4 (00:00) 25.8 9.44 (08:50) 5.28 (08:40) 0 0 0 0 0
06-09-2019 32.4 (17:20) 21.5 (00:00) 27 6.94 (07:10) 3.89 (07:30) 0 0 0 0 0
05-09-2019 34.6 (16:30) 20.8 (00:00) 27.7 9.44 (00:10) 5.28 (19:50) 0 0 0 0 0
04-09-2019 34.4 (18:00) 22.2 (00:00) 28.3 11.11 (23:50) 5.28 (14:10) 0 0 0 0 0
03-09-2019 35 (16:00) 21.5 (00:00) 28.3 7.22 (20:50) 4.17 (20:50) 0 0 0 0 0
02-09-2019 35.5 (15:50) 23.4 (00:00) 29.4 11.94 (19:50) 7.22 (20:50) 0.2 0 0 0 0.2
01-09-2019 35.2 (17:40) 22.2 (00:00) 28.7 9.72 (23:59) 5 (23:40) 0 0 0 0 0
31-08-2019 34.3 (17:00) 20.4 (00:00) 27.3 11.11 (02:50) 6.67 (02:10) 0 0 0 0 0
30-08-2019 35.6 (16:30) 21.5 (00:00) 28.5 16.39 (22:30) 6.39 (22:30) 0 0 0 0 0
29-08-2019 34.9 (17:00) 23.5 (00:00) 29.2 8.89 (20:40) 5.56 (02:50) 0 0 0 0 0
28-08-2019 33.1 (17:20) 19.7 (00:00) 26.4 6.39 (15:20) 3.33 (21:40) 0 0 0 0 0
27-08-2019 29.9 (17:00) 18.8 (00:00) 24.3 8.89 (00:30) 5.28 (00:40) 0 0 0 0 0
26-08-2019 29.7 (18:20) 20.7 (00:00) 25.2 13.89 (21:50) 7.78 (21:50) 0 0 0 0 0
25-08-2019 34.4 (16:30) 20.2 (00:00) 27.3 11.39 (22:50) 7.78 (22:50) 0 0 0 0 0
24-08-2019 35.4 (17:10) 20.7 (00:00) 28.1 8.06 (01:20) 5 (02:30) 0 0 0 0 0
23-08-2019 35.1 (17:50) 24.1 (00:00) 29.6 14.72 (03:40) 9.17 (03:40) 0 0 0 0 0

Gráficas

Temp. máximas Temp. mínimas Temp. medias Precipitaciones Rachas de viento máximas Velocidades máximas media en intervalos de 10 minutos

Datos horarios

Fecha y hora oficial Temperatura (ºC) Velocidad del viento (km/h) Dirección del viento Racha (km/h) Dirección de racha Precipitación (mm) Presión (hPa) Tendencia (hPa) Humedad (%)
2019-09-21 23:00:00 19.6 5 Oeste 22 Oeste 0 949.1 1.8 75
2019-09-21 22:00:00 19.6 10 Oeste 17 Oeste 0 948.9 1.6 79
2019-09-21 21:00:00 21 12 Oeste 22 Oeste 0 948 0.3 74
2019-09-21 20:00:00 21.4 12 Noroeste 20 Noroeste 0 947.3 -0.1 75
2019-09-21 19:00:00 22.6 10 Noroeste 18 Noroeste 0 947.3 -0.5 70
2019-09-21 18:00:00 22.8 12 Noroeste 17 Oeste 0 947.7 -0.4 70
2019-09-21 17:00:00 23 7 Norte 18 Noroeste 0 947.4 -1.2 69
2019-09-21 16:00:00 23 10 Noroeste 17 Noroeste 0 947.8 -0.8 70
2019-09-21 15:00:00 22.9 5 Noroeste 14 Norte 0 948.1 -0.9 71
2019-09-21 14:00:00 21.6 6 Noroeste 12 Noroeste 0 948.6 -0.1 76
2019-09-21 13:00:00 21.8 4 Nordeste 12 Norte 0 948.6 0.1 74
2019-09-21 12:00:00 21.8 6 Norte 13 Norte 0 949 0.7 75
2019-09-21 11:00:00 21.1 4 Este 14 Sudeste 0 948.7 0.6 78
2019-09-21 10:00:00 19.5 2 Este 6 Noroeste 0 948.5 0.5 85
2019-09-21 09:00:00 18.7 2 Nordeste 7 Sudeste 0 948.3 0.3 89
2019-09-21 08:00:00 18.4 2 Noroeste 6 Nordeste 0 948.1 0.2 88
2019-09-21 07:00:00 18.7 2 Sudeste 6 Sur 0 948 0 86
2019-09-21 06:00:00 19.1 4 Oeste 8 Sudoeste 0 948 -0.3 86
2019-09-21 05:00:00 19 4 Sur 13 Oeste 0 947.9 -0.6 83
2019-09-21 04:00:00 18.4 7 Sudoeste 11 Sudoeste 0 948 -0.7 84
2019-09-21 03:00:00 18.8 5 Sur 8 Sur 0 948.3 -0.5 81
2019-09-21 02:00:00 19.4 4 Sur 14 Sudeste 0 948.5 0 78
2019-09-21 01:00:00 19.6 9 Sudoeste 14 Oeste 0 948.7 0.1 76
2019-09-21 00:00:00 20.8 2 Oeste 10 Oeste 0 948.8 0.9 68
2019-09-20 23:00:00 21.2 6 Sur 14 Noroeste 0 948.5 0.9 66
2019-09-20 22:00:00 22 7 Sudoeste 15 Oeste 0 948.6 0.8 60
2019-09-20 21:00:00 22.3 7 Oeste 15 Oeste 0 947.9 0 62
2019-09-20 20:00:00 23.3 4 Sudoeste 10 Oeste 0 947.6 -0.2 62
2019-09-20 19:00:00 23.9 4 Oeste 11 Noroeste 0 947.8 -0.1 61
2019-09-20 18:00:00 24 8 Noroeste 13 Noroeste 0 947.9 -0.5 58
2019-09-20 17:00:00 24.5 9 Noroeste 15 Norte 0 947.8 -1.1 56
2019-09-20 16:00:00 25.6 6 Norte 20 Noroeste 0 947.9 -1.4 53
2019-09-20 15:00:00 24.9 12 Noroeste 24 Noroeste 0 948.4 -1.3 53
2019-09-20 14:00:00 24.1 15 Noroeste 27 Noroeste 0 948.9 -0.6 55
2019-09-20 13:00:00 24 14 Noroeste 22 Noroeste 0 949.3 0.1 56
2019-09-20 12:00:00 22.6 8 Noroeste 14 Nordeste 0 949.7 0.7 63
2019-09-20 11:00:00 22.6 6 Este 19 Sudeste 0 949.5 0.7 63
2019-09-20 10:00:00 21.5 11 Sudeste 21 Sudeste 0 949.2 0.4 67
2019-09-20 09:00:00 19.4 6 Este 14 Este 0 949 0 77
2019-09-20 08:00:00 18.2 4 Sur 7 Sudeste 0 948.8 -0.6 80
2019-09-20 07:00:00 18.8 5 Sudeste 9 Sur 0 948.8 -0.7 80
2019-09-20 06:00:00 19.5 4 Sudeste 12 Sur 0 949 -0.8 74
2019-09-20 05:00:00 19.3 4 Sudoeste 9 Sudoeste 0 949.4 -0.4 72
2019-09-20 04:00:00 20.7 2 Sudoeste 16 Sur 0 949.5 -0.2 66
2019-09-20 03:00:00 21.9 14 Sur 21 Sur 0 949.8 -0.1 61
2019-09-20 02:00:00 20.5 3 Sudoeste 7 Sudoeste 0 949.8 -0.1 66
2019-09-20 01:00:00 20.6 5 Sudoeste 7 Sur 0 949.7 -0.2 64
2019-09-20 00:00:00 21.1 5 Sur 8 Sudoeste 0 949.9 0.8 62
2019-09-19 23:00:00 21.5 5 Sudoeste 7 Sudoeste 0 949.9 1 62
2019-09-19 22:00:00 22.1 4 Sudoeste 8 Sudoeste 0 949.9 1.2 62
2019-09-19 21:00:00 23 7 Sudoeste 10 Sudoeste 0 949.1 0.4 59
2019-09-19 20:00:00 25.2 8 Sudoeste 11 Noroeste 0 948.9 -0.1 52
2019-09-19 19:00:00 27.3 4 Noroeste 10 Oeste 0 948.7 -0.7 45
2019-09-19 18:00:00 27.5 5 Norte 11 Norte 0 948.7 -1.4 45
2019-09-19 17:00:00 28 3 Nordeste 15 Noroeste 0 949 -1.6 45
2019-09-19 16:00:00 28 5 Norte 17 Noroeste 0 949.4 -1.5 45
2019-09-19 15:00:00 26.8 5 Nordeste 16 Norte 0 950.1 -1.3 48
2019-09-19 14:00:00 25.7 5 Noroeste 13 Noroeste 0 950.6 -0.6 52
2019-09-19 13:00:00 24.3 5 Nordeste 10 Este 0 950.9 -0.1 58
2019-09-19 12:00:00 22.7 5 Nordeste 11 Norte 0 951.4 0.5 65
2019-09-19 11:00:00 21.4 4 Nordeste 8 Norte 0 951.2 0.6 69
2019-09-19 10:00:00 19.9 3 Norte 7 Nordeste 0 951 0.8 73
2019-09-19 09:00:00 18.3 2 Sudoeste 7 Sudoeste 0 950.9 0.8 76
2019-09-19 08:00:00 17 4 Sudoeste 6 Sudoeste 0 950.6 0.3 80
2019-09-19 07:00:00 17.4 3 Oeste 10 Oeste 0 950.2 -0.2 78
2019-09-19 06:00:00 17.3 4 Sudoeste 6 Sudoeste 0 950.1 -0.5 78
2019-09-19 05:00:00 17.9 4 Sudoeste 6 Sudoeste 0 950.3 -0.3 76
2019-09-19 04:00:00 18.3 6 Sudoeste 9 Sudoeste 0 950.4 -0.2 74
2019-09-19 03:00:00 18.9 3 Oeste 6 Sudoeste 0 950.6 -0.2 71
2019-09-19 02:00:00 20.3 4 Sudoeste 14 Sudoeste 0 950.6 -0.1 65
2019-09-19 01:00:00 21.3 9 Oeste 15 Sudoeste 0 950.6 0.3 59
2019-09-19 00:00:00 21.4 6 Sudoeste 19 Sudoeste 0 950.8 1 60
2019-09-18 23:00:00 22.8 8 Oeste 15 Sudoeste 0 950.7 1.3 52
2019-09-18 22:00:00 23.3 9 Oeste 14 Oeste 0 950.3 1.1 49
2019-09-18 21:00:00 23.4 9 Oeste 13 Oeste 0 949.8 0.7 52
2019-09-18 20:00:00 25 8 Oeste 18 Noroeste 0 949.4 0.1 50
2019-09-18 19:00:00 26.4 11 Noroeste 21 Norte 0 949.2 -0.4 46
2019-09-18 18:00:00 27.2 11 Noroeste 19 Norte 0 949.1 -1.1 44
2019-09-18 17:00:00 27.7 6 Norte 19 Norte 0 949.3 -1.5 46
2019-09-18 16:00:00 27.4 6 Norte 20 Norte 0 949.6 -1.5 49
2019-09-18 15:00:00 26.9 5 Noroeste 15 Norte 0 950.2 -0.9 55
2019-09-18 14:00:00 25.3 6 Norte 13 Norte 0 950.8 -0.3 62
2019-09-18 13:00:00 24.7 6 Noroeste 14 Norte 0 951.1 0.4 67
2019-09-18 12:00:00 23.5 5 Noroeste 12 Norte 0 951.1 1.1 71
2019-09-18 11:00:00 21.8 4 Nordeste 8 Norte 0 951.1 1.5 77
2019-09-18 10:00:00 20.1 5 Norte 10 Nordeste 0 950.7 1.3 82
2019-09-18 09:00:00 18.9 3 Noroeste 8 Sur 0 950 0.7 84
2019-09-18 08:00:00 17.5 6 Sur 8 Sudoeste 0 949.6 0.4 88
2019-09-18 07:00:00 17.6 3 Sur 6 Oeste 0 949.4 0 86
2019-09-18 06:00:00 18.5 3 Sudoeste 10 Oeste 0 949.3 -0.5 81
2019-09-18 05:00:00 19 7 Oeste 9 Oeste 0 949.2 -0.7 80
2019-09-18 04:00:00 20.4 3 Este 18 Oeste 0 949.4 -0.6 72
2019-09-18 03:00:00 20.5 5 Oeste 17 Oeste 0 949.8 0.1 73
2019-09-18 02:00:00 21.5 6 Sur 11 Sur 0 949.9 0.2 68
2019-09-18 01:00:00 21.1 8 Sudoeste 12 Sudoeste 0 950 0.6 70
2019-09-18 00:00:00 20.5 6 Sudoeste 8 Sudoeste 0 949.7 0.7 74
2019-09-17 23:00:00 20.9 4 Sudoeste 10 Sudoeste 0 949.7 1 72
2019-09-17 22:00:00 21.6 7 Sudoeste 10 Sudoeste 0 949.4 1 66
2019-09-17 21:00:00 22.3 5 Sur 7 Sur 0 949 0.4 63
2019-09-15 18:00:00 25.3 11 Noroeste 21 Noroeste 0 951.2 -0.7 64
2019-09-15 17:00:00 24.6 12 Noroeste 22 Noroeste 0 951.4 -1.1 66
2019-09-15 16:00:00 24.9 12 Noroeste 19 Noroeste 0 951.5 -1.3 65
2019-09-15 15:00:00 24.8 3 Nordeste 16 Noroeste 0 951.9 -1.2 66
2019-09-15 14:00:00 24.4 7 Noroeste 15 Norte 0 952.5 -0.6 68
2019-09-15 13:00:00 24.2 4 Este 10 Este 0 952.8 0 67
2019-09-15 12:00:00 22.7 5 Noroeste 11 Noroeste 0 953.1 0.9 74
2019-09-15 11:00:00 20.1 2 Nordeste 11 Norte 0 953.1 1.3 89
2019-09-15 10:00:00 19.9 6 Noroeste 20 Noroeste 0 952.8 1.2 88
2019-09-15 09:00:00 20 9 Oeste 15 Noroeste 0 952.2 0.4 85
2019-09-15 08:00:00 19.1 3 Este 17 Sudeste 0 951.8 -0.3 87
2019-09-15 07:00:00 20.3 11 Sudeste 19 Sudeste 0 951.6 -0.8 77
2019-09-15 06:00:00 19.5 2 Sudeste 10 Sudeste 0 951.8 -0.6 86
2019-09-15 05:00:00 19.7 2 Sudoeste 15 Sur 0 952.1 -0.4 87
2019-09-15 04:00:00 20.1 9 Sur 15 Sur 0 952.4 -0.2 83
2019-09-15 03:00:00 19.2 2 Sur 8 Sudoeste 0 952.4 -0.1 87
2019-09-15 02:00:00 19.7 5 Sudoeste 9 Sudoeste 0 952.5 0.1 85
2019-09-15 01:00:00 21 3 Sudoeste 20 Sur 0 952.6 0.4 79
2019-09-15 00:00:00 21.8 10 Sudeste 24 Sur 0 952.5 0.7 73
2019-09-14 23:00:00 21.9 10 Sudeste 19 Este 0 952.4 0.9 73
2019-09-14 22:00:00 20.9 3 Sudeste 10 Sur 0 952.2 0.6 84
2019-09-14 21:00:00 21 7 Sur 13 Sur 0 951.8 0.2 83
2019-09-14 20:00:00 21.9 9 Sur 13 Sur 0 951.5 -0.4 79
2019-09-14 19:00:00 22.7 5 Sudeste 11 Sudeste 0 951.6 -0.6 74
2019-09-14 18:00:00 23.3 4 Sudoeste 11 Nordeste 0 951.6 -1.3 73
2019-09-14 17:00:00 22.6 3 Norte 10 Norte 0 951.9 -1.7 74
2019-09-14 16:00:00 21.8 5 Nordeste 12 Norte 0 952.2 -2.5 79
2019-09-14 15:00:00 21.1 5 Nordeste 13 Este 0 952.9 -1.4 81
2019-09-14 14:00:00 19.3 8 Sudeste 15 Este 0 953.6 -1.1 89
2019-09-14 13:00:00 17 4 Sudeste 17 Este 0.4 954.7 0.7 96
2019-09-14 12:00:00 17.1 7 Este 12 Este 2.6 954.3 0.2 96
2019-09-14 11:00:00 16.6 9 Norte 19 Nordeste 6.2 954.7 1 96
2019-09-14 10:00:00 16.7 3 Sudoeste -- -- 0.2 954 1.1 94
2019-09-14 09:00:00 16 -- -- -- -- 1.2 954.1 1.6 92
2019-09-14 08:00:00 16.7 20 Sur 30 Sur 5.6 953.7 1.3 93
2019-09-14 07:00:00 17.1 4 Noroeste 10 Sur 2.2 952.9 -0.2 91
2019-09-14 06:00:00 18.2 5 Sur 22 Este 0.4 952.5 -0.6 83
2019-09-14 05:00:00 19.2 11 Sudeste 19 Sudeste 0 952.4 -0.9 70
2019-09-14 04:00:00 20.5 13 Sudeste 44 Este 0 953.1 -0.8 63
2019-09-14 03:00:00 20.6 28 Sudeste 42 Sudeste 0 953.1 -1.1 61
2019-09-14 02:00:00 20.9 14 Sudeste 41 Sudeste 0 953.3 -1.2 64
2019-09-14 01:00:00 21 22 Sudeste 41 Sudeste 0 953.9 -0.6 67
2019-09-14 00:00:00 18.1 5 Sudeste 10 Sur 0 954.2 0.5 81
2019-09-13 23:00:00 17.3 3 Sur 6 Sur 0 954.5 0.8 88
2019-09-13 22:00:00 17.8 4 Sur 5 Sur 0 954.5 1.2 83
2019-09-13 21:00:00 18.5 3 Sur 11 Sudoeste 0 953.7 1.6 81
2019-09-13 20:00:00 19.1 7 Sudoeste 10 Sudoeste 0.2 953.7 1 86
2019-09-13 19:00:00 20.9 8 Norte 16 Norte 0.4 953.3 0.1 78
2019-09-13 18:00:00 22.5 6 Norte 21 Sudeste 0 952.1 -1.5 62
2019-09-13 17:00:00 21.8 8 Este 25 Sudeste 0 952.7 -1.2 65
2019-09-13 16:00:00 21.1 6 Este 17 Noroeste 0 953.2 -1.2 71
2019-09-13 15:00:00 22.4 9 Norte 23 Este 0 953.6 -1.1 66
2019-09-13 14:00:00 21.8 11 Este 22 Este 0 953.9 -0.9 68
2019-09-13 13:00:00 20.9 9 Este 19 Este 0 954.4 -0.7 65
2019-09-13 12:00:00 19.2 9 Sudeste 23 Este 0 954.7 -0.2 75
2019-09-13 11:00:00 16.2 9 Sudeste 16 Sudeste 0 954.8 -0.3 90
2019-09-13 10:00:00 14.7 4 Sudeste 12 Este 0 955.1 0.6 95
2019-09-13 09:00:00 14.6 5 Sudeste 23 Sudeste 0.4 954.9 0.1 94
2019-09-13 08:00:00 15.5 16 Sudeste 40 Sudeste 2.4 955.1 -0.3 83
2019-09-13 07:00:00 14.7 17 Sur 32 Sur 1 954.5 -1.6 87
2019-09-13 06:00:00 14.2 6 Sudeste 18 Sur 1.6 954.8 -2 91
2019-09-13 05:00:00 14.1 10 Sudeste 26 Sudeste 2.4 955.4 -1.5 93
2019-09-13 04:00:00 14.6 13 Sudeste 35 Este 4.4 956.1 -1.2 92
2019-09-13 03:00:00 15 13 Sudeste 33 Sur 5 956.8 -0.7 90
2019-09-13 02:00:00 15.3 21 Sur 31 Sur 6.4 956.9 -0.7 90
2019-09-13 01:00:00 15.6 9 Sudeste 15 Sudeste 4.4 957.3 -0.1 96
2019-09-13 00:00:00 15.9 6 Este 19 Norte 4 957.5 0.7 96
2019-09-12 23:00:00 16.2 5 Sur 14 Sudeste 6.2 957.6 1.9 94
2019-09-12 22:00:00 16.5 4 Sudeste 14 Nordeste 5.4 957.4 1.6 94
2019-09-12 21:00:00 17.1 5 Este 12 Este 3.6 956.8 0.9 90
2019-09-12 20:00:00 18.4 3 Nordeste 19 Este 0.4 955.7 0 81
2019-09-12 19:00:00 19.2 8 Este 19 Nordeste 0.2 955.8 -0.1 74
2019-09-12 18:00:00 20.2 10 Este 25 Este 0 955.9 -0.2 65
2019-09-12 17:00:00 21.1 12 Este 24 Nordeste 0 955.7 -0.2 62
2019-09-12 16:00:00 20.9 7 Nordeste 17 Este 0 955.9 -0.4 61
2019-09-12 15:00:00 20.7 8 Nordeste 18 Este 0 956.1 -0.2 59
2019-09-12 14:00:00 21.2 6 Nordeste 13 Nordeste 0 955.9 0.2 55
2019-09-12 13:00:00 19.9 7 Este 14 Sudeste 0 956.3 1.8 60
2019-09-12 12:00:00 18.2 5 Nordeste 11 Nordeste 0 956.3 2 69
2019-09-12 11:00:00 17.3 5 Nordeste 18 Sudeste 0 955.7 1.9 70
2019-09-12 10:00:00 16.9 14 Sudeste 28 Sudeste 0 954.5 1 68
2019-09-12 09:00:00 16.1 11 Sudeste 22 Sudeste 0 954.3 0.2 75
2019-09-12 08:00:00 15.6 9 Sudeste 25 Sur 0 953.8 -0.3 76
2019-09-12 07:00:00 14.5 4 Sudeste 12 Sudoeste 0 953.5 -1.6 83
2019-09-12 06:00:00 13.8 5 Sudoeste 12 Sudoeste 0.8 954.1 -1.3 83
2019-09-12 05:00:00 15.3 3 Oeste 8 Sur 0 954.1 -1 74
2019-09-12 04:00:00 14.1 5 Sudoeste 10 Oeste 0 955.1 0.4 71
2019-09-12 03:00:00 14.8 4 Sudoeste 12 Norte 0 955.4 0.5 66
2019-09-12 02:00:00 15.7 3 Norte 13 Sudeste 0 955.1 0.6 64
2019-09-12 01:00:00 16.6 6 Sur 16 Sudeste 0 954.7 0.4 58
2019-09-12 00:00:00 17.4 9 Sudeste 21 Sudeste 0 954.9 1.6 54
2019-09-11 23:00:00 18.3 9 Este 25 Este 0 954.5 1.8 50
2019-09-11 22:00:00 19.1 11 Este 32 Nordeste 0 954.3 2.4 46
2019-09-11 21:00:00 20.7 9 Nordeste 35 Norte 0 953.3 1.7 40
2019-09-11 20:00:00 22 13 Este -- -- 0 952.7 0.8 39
2019-09-11 19:00:00 22.6 -- -- -- -- 0 951.9 -0.4 38
2019-09-11 18:00:00 23 4 Norte 17 Este 0 951.6 -0.7 36
2019-09-11 17:00:00 22 5 Este 18 Sudeste 0 951.9 -0.7 38
2019-09-11 16:00:00 21.4 6 Este 22 Este 0 952.3 -0.8 39
2019-09-11 15:00:00 20.9 11 Sudeste 26 Sudeste 0 952.3 -0.8 40
2019-09-11 14:00:00 20.4 7 Sudeste 21 Sudeste 0 952.6 -0.4 41
2019-09-11 13:00:00 20.4 8 Este 21 Este 0 953.1 0.4 40
2019-09-11 12:00:00 19.6 11 Este 26 Este 0 953.1 0.6 42
2019-09-11 11:00:00 18.1 8 Este 21 Sudeste 0 953 1.1 46
2019-09-11 10:00:00 15.5 6 Este 17 Este 0 952.7 1.3 54
2019-09-11 09:00:00 14.6 3 Este 14 Este 0 952.5 1.7 54
2019-09-11 08:00:00 14.1 5 Sudeste 13 Nordeste 0 951.9 1 56
2019-09-11 07:00:00 14.2 5 Noroeste 14 Noroeste 0 951.4 0.1 55
2019-09-11 06:00:00 14 4 Sudeste 11 Este 0 950.8 -0.9 57
2019-09-11 05:00:00 14.5 4 Sudeste 10 Nordeste 0 950.9 -1.1 55
2019-09-11 04:00:00 15.3 6 Este 15 Este 0 951.3 -0.3 53
2019-09-11 03:00:00 15.5 4 Sur 12 Este 0 951.7 0.6 54
2019-09-11 02:00:00 15.8 3 Sudoeste 17 Nordeste 0 952 1.4 56
2019-09-11 01:00:00 16.8 7 Este 26 Nordeste 0.2 951.6 2 53
2019-09-11 00:00:00 18.5 7 Este 21 Sudeste 0 951.1 2.4 38
2019-09-10 23:00:00 19.4 6 Nordeste 29 Norte 0 950.6 2.6 32
2019-09-10 22:00:00 19.7 8 Noroeste 21 Noroeste 0 949.6 2.1 29
2019-09-10 21:00:00 21.3 -- -- -- -- 0 948.7 1.3 24
2019-09-10 20:00:00 22.7 -- -- -- -- 0 948 0.7 21
2019-09-10 19:00:00 23.4 -- -- -- -- 0 947.5 -0.2 19
2019-09-10 18:00:00 23.9 -- -- -- -- 0 947.4 -0.6 20
2019-09-10 17:00:00 23.5 23 Norte 37 Norte 0 947.3 -1.1 25
2019-09-10 16:00:00 22.7 12 Noroeste 32 Noroeste 0 947.7 -1.1 34
2019-09-10 15:00:00 22.5 16 Noroeste 31 Norte 0 948 -0.8 39
2019-09-10 14:00:00 21.5 14 Noroeste 31 Noroeste 0 948.4 -0.2 44
2019-09-10 13:00:00 20.1 15 Noroeste 38 Noroeste 0 948.8 0.9 47
2019-09-10 12:00:00 19.9 15 Oeste 37 Noroeste 0 948.8 1.1 48
2019-09-10 11:00:00 19.4 17 Noroeste 43 Noroeste 0 948.6 1.3 48
2019-09-10 10:00:00 19.7 14 Oeste 35 Oeste 0 947.9 0.7 39
2019-09-10 09:00:00 18.3 14 Noroeste 30 Noroeste 0 947.7 0.3 45
2019-09-10 08:00:00 18.1 12 Oeste 26 Oeste 0 947.3 -0.7 44
2019-09-10 07:00:00 18.9 15 Oeste 33 Oeste 0 947.2 -1.2 44
2019-09-10 06:00:00 19.8 9 Oeste -- -- 0 947.4 -1.5 49
2019-09-10 05:00:00 21.1 -- -- -- -- 0 948 -1.5 44
2019-09-10 04:00:00 22.1 14 Oeste 32 Oeste 0 948.4 -1.5 46
2019-09-10 03:00:00 22.8 11 Sudoeste 31 Sudoeste 0 948.9 -1.1 45
2019-09-10 02:00:00 23.3 11 Sudoeste 32 Sudoeste 0 949.5 -0.5 43
2019-09-10 01:00:00 23.6 13 Oeste 43 Sudoeste 0 949.9 0.3 44
2019-09-10 00:00:00 24.3 16 Sudoeste 37 Oeste 0 950 0.7 45
2019-09-09 23:00:00 25.2 15 Oeste 36 Oeste 0 950 0.8 42
2019-09-09 22:00:00 25.9 15 Sudoeste 30 Oeste 0 949.6 0.4 38
2019-09-09 21:00:00 25.9 11 Sudoeste 24 Noroeste 0 949.3 -0.2 39
2019-09-09 20:00:00 27 9 Oeste 29 Oeste 0 949.2 -0.4 37
2019-09-09 19:00:00 28.2 15 Oeste 31 Oeste 0 949.2 -1.1 33
2019-09-09 18:00:00 29 13 Oeste 27 Noroeste 0 949.5 -1.2 31
2019-09-09 17:00:00 28.8 13 Noroeste 30 Oeste 0 949.6 -1.8 32
2019-09-09 16:00:00 28.5 14 Noroeste 34 Noroeste 0 950.3 -2 31
2019-09-09 15:00:00 27.5 17 Noroeste 29 Norte 0 950.7 -1.9 38
2019-09-09 14:00:00 27.3 11 Noroeste 26 Norte 0 951.4 -1.2 37
2019-09-09 13:00:00 25.5 11 Noroeste 21 Norte 0 952.3 0 57
2019-09-09 12:00:00 23.9 7 Norte 14 Noroeste 0 952.6 0.5 60
2019-09-09 11:00:00 21.4 7 Noroeste 12 Noroeste 0 952.6 0.8 65
2019-09-09 10:00:00 21.5 6 Norte 12 Norte 0 952.3 0.8 65
2019-09-09 09:00:00 18.7 2 Oeste 4 Oeste 0 952.1 1 72
2019-09-09 08:00:00 18.2 2 Sudoeste 12 Sur 0 951.8 0 72
2019-09-09 07:00:00 19.1 7 Oeste 17 Oeste 0 951.5 -0.5 70
2019-09-09 06:00:00 19.3 10 Sur 20 Sur 0 951.1 -1.1 66
2019-09-09 05:00:00 18.3 5 Sudoeste 8 Sudoeste 0 951.8 -0.3 76
2019-09-09 04:00:00 18.3 4 Sur 8 Sur 0 952 0 78
2019-09-09 03:00:00 18.3 3 Sudoeste 8 Sur 0 952.2 0.3 78
2019-09-09 02:00:00 19 4 Sur 9 Oeste 0 952.1 0.1 76
2019-09-09 01:00:00 19.5 7 Oeste 11 Sudoeste 0 952 0.3 72
2019-09-09 00:00:00 20.2 2 Sudeste 9 Sur 0 951.9 1.5 66
2019-09-08 23:00:00 20.6 5 Sudeste 10 Sudoeste 0 952 0.8 64
2019-09-08 22:00:00 21.5 9 Sudoeste 25 Sudeste 0 951.7 1 56
2019-09-08 21:00:00 20.9 21 Sur 38 Sudeste 0 950.4 0.4 63
2019-09-08 20:00:00 20.3 21 Sudeste 38 Sudeste 0 951.2 1.6 70
2019-09-08 19:00:00 20.5 14 Oeste 27 Oeste 0.2 950.7 1.1 75
2019-09-08 18:00:00 19.4 19 Sudoeste 36 Oeste 12 950 -0.4 84
2019-09-08 17:00:00 26.7 9 Norte 17 Norte 0 949.6 -1.1 53
2019-09-08 16:00:00 26.9 9 Noroeste 17 Noroeste 0 949.6 -1.4 51
2019-09-08 15:00:00 26.3 6 Noroeste 13 Noroeste 0 950.4 -0.8 55
2019-09-08 14:00:00 24.2 5 Norte 12 Norte 0 950.7 0 60
2019-09-08 13:00:00 23.1 8 Norte 14 Noroeste 0 951 1 66
2019-09-08 12:00:00 22.4 6 Norte 18 Noroeste 0 951.2 0.9 69
2019-09-08 11:00:00 23.1 9 Norte 28 Sudeste 0 950.7 0.2 66
2019-09-08 10:00:00 21.7 17 Sudeste 28 Sudeste 0 950 -0.5 59
2019-09-08 09:00:00 18.5 10 Sudeste 19 Sudeste 0 950.3 -0.6 82
2019-09-08 08:00:00 17.8 3 Este 13 Norte 0 950.5 -0.5 87
2019-09-08 07:00:00 18.2 2 Sudoeste 10 Este 0 950.5 -0.6 86
2019-09-08 06:00:00 19 5 Este 10 Nordeste 0.4 950.9 0 83
2019-09-08 05:00:00 20.6 3 Este 15 Este 0 951 0.4 69
2019-09-08 04:00:00 21.8 8 Este 18 Oeste 0 951.1 1.2 65
2019-09-08 03:00:00 22.3 9 Oeste 25 Sudeste 0 950.9 1 63
2019-09-08 02:00:00 22.7 14 Sudeste 34 Sudeste 0 950.6 0.8 59
2019-09-08 01:00:00 23.7 16 Sudeste 40 Sudeste 0 949.9 0.6 53
2019-09-08 00:00:00 24.6 18 Sudeste 33 Este 0 949.9 1.1 46
2019-09-07 23:00:00 25.9 14 Sur 24 Sur 0 949.8 1.5 39
2019-09-07 22:00:00 25.8 11 Sur 21 Sur 0 949.3 1.2 39
2019-09-07 21:00:00 26.3 12 Sur 23 Sudeste 0 948.8 0.2 39
2019-09-07 20:00:00 27.4 12 Sudeste 23 Sudeste 0 948.3 -0.8 37
2019-09-07 19:00:00 27.9 11 Sudeste 23 Sudeste 0 948.1 -1.5 37
2019-09-07 18:00:00 29.5 3 Este 24 Este 0 948.6 -1.6 26
2019-09-07 17:00:00 29 6 Sudeste 19 Este 0 949.1 -1.3 36
2019-09-07 16:00:00 28.1 8 Sur 21 Sudeste 0 949.6 -0.9 39
2019-09-07 15:00:00 28 5 Norte 16 Este 0 950.2 -0.7 41
2019-09-07 14:00:00 29.8 7 Este 17 Este 0 950.4 -0.7 38
2019-09-07 13:00:00 29 6 Este 22 Sudeste 0 950.5 -0.6 39
2019-09-07 12:00:00 27.7 8 Sudeste 22 Este 0 950.9 0.2 45
2019-09-07 11:00:00 25.5 14 Sudeste 28 Sudeste 0 951.1 0.6 51
2019-09-07 10:00:00 24.2 13 Sur 29 Sur 0 951.1 0.8 55
2019-09-07 09:00:00 22.4 19 Sur 34 Sur 0 950.7 0.6 60
2019-09-07 08:00:00 21.5 15 Sur 28 Sur 0 950.5 0.1 64
2019-09-07 07:00:00 21.5 14 Sur 26 Sur 0 950.3 -0.2 62
2019-09-07 06:00:00 22.1 15 Sur 32 Sudeste 0 950.1 -0.2 60
2019-09-07 05:00:00 22.5 13 Sur 23 Sudeste 0 950.4 0.2 58
2019-09-07 04:00:00 22.8 10 Sur 23 Este 0 950.5 0.6 57
2019-09-07 03:00:00 23.6 14 Sudeste 32 Sudeste 0 950.3 0.5 54
2019-09-07 02:00:00 24 12 Sudeste 24 Sur 0 950.2 0.3 50
2019-09-07 01:00:00 23.4 5 Sur 15 Oeste 0 949.9 0.7 33
2019-09-07 00:00:00 24.7 9 Oeste 19 Norte 0 949.8 1 31
2019-09-06 23:00:00 26.5 8 Noroeste 21 Oeste 0 949.9 1.3 29
2019-09-06 22:00:00 25.4 3 Sudoeste 5 Sudoeste 0 949.2 0.8 31
2019-09-06 21:00:00 27.2 3 Sudoeste 7 Sudoeste 0 948.8 0.2 28
2019-09-06 20:00:00 30 2 Noroeste 15 Norte 0 948.6 -0.4 25
2019-09-06 19:00:00 30.9 4 Este 21 Norte 0 948.4 -1.2 24
2019-09-06 18:00:00 31.6 6 Este 23 Norte 0 948.6 -1.8 26
2019-09-06 17:00:00 32.1 8 Noroeste 19 Norte 0 949 -2.1 22
2019-09-06 16:00:00 31.9 12 Norte 19 Norte 0 949.6 -1.7 31
2019-09-06 15:00:00 30.5 9 Norte 19 Noroeste 0 950.4 -1.2 39
2019-09-06 14:00:00 29.5 9 Norte 20 Nordeste 0 951.1 -0.4 43
2019-09-06 13:00:00 28.4 5 Norte 15 Norte 0 951.3 0.2 45
2019-09-06 12:00:00 26.9 5 Norte 13 Norte 0 951.6 0.5 49
2019-09-06 11:00:00 25.5 9 Norte 19 Este 0 951.5 0.8 54
2019-09-06 10:00:00 24.6 9 Sudeste 23 Sudeste 0 951.1 0.6 59
2019-09-06 09:00:00 23.1 9 Sur 21 Sur 0 951.1 0.7 64
2019-09-06 08:00:00 22.2 9 Sur 25 Sur 0 950.7 0.5 67
2019-09-06 07:00:00 22.4 13 Sur 19 Sur 0 950.5 0 66
2019-09-06 06:00:00 22.7 6 Sudoeste 20 Sudeste 0 950.4 -0.4 63
2019-09-06 05:00:00 21.7 7 Sur 10 Sudeste 0 950.2 -0.7 64
2019-09-06 04:00:00 22 3 Oeste 8 Sudoeste 0 950.5 0 65
2019-09-06 03:00:00 22.8 5 Oeste 10 Sudoeste 0 950.8 0.4 59
2019-09-06 02:00:00 23.8 3 Sudoeste 15 Este 0 950.9 0.9 57
2019-09-06 01:00:00 25.7 7 Sur 18 Sur 0 950.5 0.7 54
2019-09-06 00:00:00 25.9 5 Sudeste 18 Sudeste 0 950.4 1.6 51
2019-09-05 23:00:00 26.6 3 Noroeste 11 Sudoeste 0 950 0.9 35
2019-09-05 22:00:00 27.4 7 Sudoeste 15 Noroeste 0 949.8 1.6 35
2019-09-05 21:00:00 28.3 8 Oeste 27 Oeste 0 948.8 0.6 31
2019-09-05 20:00:00 28 17 Noroeste 32 Norte 0 949.1 0.7 47
2019-09-05 19:00:00 32.8 4 Norte 17 Nordeste 0 948.2 -0.9 23
2019-09-05 18:00:00 34 5 Norte 24 Norte 0 948.2 -1.6 19
2019-09-05 17:00:00 34.2 4 Este 19 Norte 0 948.4 -1.8 19
2019-09-05 16:00:00 34.2 8 Nordeste 17 Norte 0 949.1 -1.6 22
2019-09-05 15:00:00 33.1 8 Noroeste 19 Nordeste 0 949.8 -1.1 22
2019-09-05 14:00:00 31.6 7 Norte 15 Noroeste 0 950.2 -0.7 29
2019-09-05 13:00:00 29.9 4 Este 11 Nordeste 0 950.7 0 39
2019-09-05 12:00:00 27.6 5 Nordeste 13 Este 0 950.9 0.3 45
2019-09-05 11:00:00 25.9 5 Nordeste 12 Nordeste 0 950.9 0.7 49
2019-09-05 10:00:00 24.6 7 Este 12 Sudeste 0 950.7 0.9 50
2019-09-05 09:00:00 22.8 3 Este 9 Este 0 950.6 0.9 57
2019-09-05 08:00:00 20.9 5 Sur 8 Sudoeste 0 950.2 1 57
2019-09-05 07:00:00 21.7 2 Sudoeste 9 Oeste 0 949.8 0.2 52
2019-09-05 06:00:00 22.9 5 Oeste 17 Sudeste 0 949.7 0 50
2019-09-05 05:00:00 24.5 9 Sudeste 18 Sudeste 0 949.2 -0.8 45
2019-09-05 04:00:00 23.4 5 Sudoeste 9 Sur 0 949.6 -0.5 47
2019-09-05 03:00:00 24.7 2 Sur 10 Sudoeste 0 949.7 -0.5 42
2019-09-05 02:00:00 26 3 Sudoeste 15 Este 0 950 -0.4 39
2019-09-05 01:00:00 27.9 6 Nordeste 34 Oeste 0 950.1 -0.1 36
2019-09-05 00:00:00 28.6 18 Oeste 40 Oeste 0 950.2 0.4 34
2019-09-04 23:00:00 29.2 16 Oeste 36 Oeste 0 950.4 0.6 33
2019-09-04 22:00:00 29.7 14 Oeste 32 Oeste 0 950.2 0.2 32
2019-09-04 21:00:00 30.6 10 Oeste 22 Sudoeste 0 949.8 -0.4 30
2019-09-04 20:00:00 31.8 12 Oeste 24 Norte 0 949.8 -0.4 28
2019-09-04 19:00:00 32.5 17 Noroeste 33 Oeste 0 950 -0.9 27
2019-09-04 18:00:00 34.3 13 Oeste 32 Norte 0 950.2 -1.6 22
2019-09-04 17:00:00 34.2 13 Noroeste 30 Noroeste 0 950.2 -2.1 23
2019-09-04 16:00:00 33.4 13 Noroeste 30 Noroeste 0 950.9 -2.1 25
2019-09-04 15:00:00 32.8 17 Noroeste 30 Noroeste 0 951.8 -1.8 28
2019-09-04 14:00:00 32.1 15 Noroeste 28 Oeste 0 952.3 -1.3 31
2019-09-04 13:00:00 31.1 7 Norte 18 Norte 0 953 -0.3 35
2019-09-04 12:00:00 29.1 6 Norte 12 Nordeste 0 953.6 0.5 38
2019-09-04 11:00:00 27.7 5 Nordeste 10 Nordeste 0 953.6 0.7 40
2019-09-04 10:00:00 25.5 4 Norte 9 Norte 0 953.3 0.7 43
2019-09-04 09:00:00 24.7 4 Oeste 11 Sur 0 953.1 0.5 44
2019-09-04 08:00:00 22.4 7 Sudoeste 10 Sudoeste 0 952.9 0.4 49
2019-09-04 07:00:00 22.8 5 Sur 7 Sur 0 952.6 -0.2 48
2019-09-04 06:00:00 23.6 6 Oeste 11 Oeste 0 952.6 -0.6 44
2019-09-04 05:00:00 24.2 7 Oeste 10 Oeste 0 952.5 -0.7 42
2019-09-04 04:00:00 25 5 Sur 13 Sur 0 952.8 -0.4 40
2019-09-04 03:00:00 25.8 3 Sur 19 Oeste 0 953.2 0.2 38
2019-09-04 02:00:00 26.9 11 Oeste 23 Norte 0 953.2 0.4 35
2019-09-04 01:00:00 27.6 8 Sudoeste 25 Sur 0 953.2 0.6 33
2019-09-04 00:00:00 27.8 2 Sudeste 6 Noroeste 0 953 1.2 34
2019-09-03 23:00:00 28 3 Sudoeste 13 Sur 0 952.8 0.7 33
2019-09-03 22:00:00 29.3 3 Sur 23 Sudoeste 0 952.6 0.7 30
2019-09-03 21:00:00 30.3 14 Sudoeste 26 Sudoeste 0 951.8 0 28
2019-09-03 20:00:00 31.1 7 Sudoeste 22 Sudeste 0 952.1 0.1 30
2019-09-03 19:00:00 31.6 7 Sudeste 22 Sudeste 0 951.9 -0.6 32
2019-09-03 18:00:00 33.3 6 Sudeste 19 Este 0 951.8 -1.4 28
2019-09-03 17:00:00 34.7 5 Nordeste 15 Norte 0 952 -1.9 24
2019-09-03 16:00:00 34.9 7 Nordeste 18 Nordeste 0 952.5 -1.9 24
2019-09-03 15:00:00 33.9 7 Norte 16 Norte 0 953.2 -1.4 28
2019-09-03 14:00:00 32.1 7 Este 13 Este 0 953.9 -0.6 32
2019-09-03 13:00:00 30.5 5 Nordeste 12 Este 0 954.4 0.3 35
2019-09-03 12:00:00 29.3 5 Nordeste 10 Nordeste 0 954.6 0.7 38
2019-09-03 11:00:00 27.5 4 Nordeste 10 Norte 0 954.5 1.1 43
2019-09-03 10:00:00 25.2 5 Norte 8 Norte 0 954.1 1.1 46
2019-09-03 09:00:00 23.4 0 Calma 7 Sudoeste 0 953.9 1.2 49
2019-09-03 08:00:00 21.5 5 Sudoeste 8 Sur 0 953.4 0.7 52
2019-09-03 07:00:00 21.5 3 Sur 6 Sur 0 953 0.4 52
2019-09-03 06:00:00 22.1 5 Sur 8 Sur 0 952.7 0.1 50
2019-09-03 05:00:00 22.9 5 Sudoeste 7 Sudoeste 0 952.7 0.3 47
2019-09-03 04:00:00 23.7 4 Sur 9 Sur 0 952.6 0.5 45
2019-09-03 03:00:00 23.8 3 Sudoeste 13 Sur 0 952.6 1 44
2019-09-03 02:00:00 24.9 10 Sur 14 Sur 0 952.4 1.1 41
2019-09-03 01:00:00 25.8 5 Sudoeste 14 Oeste 0 952.1 1.2 38
2019-09-03 00:00:00 26.1 4 Sudoeste 12 Sur 0 951.6 1.2 36
2019-09-02 23:00:00 27.6 4 Noroeste 32 Sur 0 951.3 1.4 33
2019-09-02 22:00:00 27.2 19 Sudeste 35 Sur 0 950.9 2.2 37
2019-09-02 21:00:00 27.6 23 Sur 39 Sur 0 950.4 1.7 38
2019-09-02 20:00:00 28.4 21 Sudeste 43 Sur 0 949.9 1.3 39
2019-09-02 19:00:00 31.5 8 Sudoeste 27 Sudeste 0.2 948.7 -0.3 44
2019-09-02 18:00:00 34.1 6 Noroeste 26 Noroeste 0 948.7 -0.9 22
2019-09-02 17:00:00 34.2 6 Noroeste 19 Norte 0 948.6 -1.6 24
2019-09-02 16:00:00 35.2 8 Norte 22 Norte 0 949 -1.5 25
2019-09-02 15:00:00 34.9 7 Este 19 Nordeste 0 949.6 -1.1 26
2019-09-02 14:00:00 34 10 Norte 22 Noroeste 0 950.2 -0.5 29
2019-09-02 13:00:00 32.6 5 Nordeste 13 Sudeste 0 950.5 0.3 31
2019-09-02 12:00:00 31.1 4 Nordeste 10 Nordeste 0 950.7 0.7 34
2019-09-02 11:00:00 28.4 5 Norte 10 Norte 0 950.7 1.5 39
2019-09-02 10:00:00 27.1 4 Norte 7 Norte 0 950.2 1.4 42
2019-09-02 09:00:00 24.8 2 Norte 7 Sur 0 950 1.5 46
2019-09-02 08:00:00 23.4 2 Sudoeste 9 Sudoeste 0 949.2 0.6 49
2019-09-02 07:00:00 23.9 0 Calma 8 Oeste 0 948.8 0.2 47
2019-09-02 06:00:00 24.8 5 Sudeste 10 Sur 0 948.5 -0.3 45
2019-09-02 05:00:00 25.5 3 Oeste 13 Sudoeste 0 948.6 -0.3 43
2019-09-02 04:00:00 26.9 7 Sur 17 Sur 0 948.6 0.2 40
2019-09-02 03:00:00 26.6 9 Sur 15 Sudoeste 0 948.8 0.4 41
2019-09-02 02:00:00 26.9 2 Norte 27 Sudoeste 0 948.9 0.5 41
2019-09-02 01:00:00 28.6 14 Sudoeste 34 Sudoeste 0 948.4 0.6 38
2019-09-02 00:00:00 28.9 17 Oeste 35 Oeste 0 948.4 1.2 37
2019-09-01 23:00:00 30.2 12 Sudoeste 24 Oeste 0 948.4 1.6 28
2019-09-01 22:00:00 30.4 10 Oeste 19 Oeste 0 947.8 1.2 26
2019-09-01 21:00:00 31.1 11 Oeste 17 Oeste 0 947.2 0.6 27
2019-09-01 20:00:00 33.1 8 Oeste 21 Oeste 0 946.8 -0.2 25
2019-09-01 19:00:00 34 9 Oeste 26 Noroeste 0 946.6 -1 24
2019-09-01 18:00:00 34.8 13 Norte 23 Noroeste 0 946.6 -1.8 23
2019-09-01 17:00:00 34.8 6 Noroeste 17 Noroeste 0 947 -2 23
2019-09-01 16:00:00 34.8 8 Noroeste 27 Norte 0 947.6 -2 24
2019-09-01 15:00:00 34.3 10 Norte 26 Norte 0 948.4 -1.7 26
2019-09-01 14:00:00 33 13 Noroeste 27 Noroeste 0 949 -1.2 30
2019-09-01 13:00:00 31.9 6 Nordeste 15 Nordeste 0 949.6 -0.3 34
2019-09-01 12:00:00 29.7 5 Norte 13 Norte 0 950.1 0.2 38
2019-09-01 11:00:00 27.7 5 Nordeste 11 Norte 0 950.2 0.4 40
2019-09-01 10:00:00 25.9 4 Norte 8 Norte 0 949.9 0.6 43
2019-09-01 09:00:00 24.2 2 Noroeste 9 Sudeste 0 949.9 0.9 47
2019-09-01 08:00:00 22.6 5 Sudeste 10 Sudeste 0 949.8 1 49
2019-09-01 07:00:00 22.5 5 Sur 7 Sur 0 949.3 0.2 50
2019-09-01 06:00:00 24.2 3 Sudoeste 13 Norte 0 949 -0.2 45
2019-09-01 05:00:00 26.5 8 Sudoeste 23 Sudoeste 0 948.8 -0.8 41
2019-09-01 04:00:00 25.4 6 Sur 11 Sudeste 0 949.1 -0.4 41
2019-09-01 03:00:00 26.7 6 Sur 23 Sur 0 949.2 -0.2 37
2019-09-01 02:00:00 26.8 3 Oeste 21 Oeste 0 949.6 0.1 37
2019-09-01 01:00:00 27.9 7 Oeste 15 Oeste 0 949.5 0.4 32
2019-09-01 00:00:00 27.8 9 Oeste 13 Sudoeste 0 949.4 0.8 32
2019-08-31 23:00:00 28.1 8 Sudoeste 10 Sudoeste 0 949.5 1.3 32
2019-08-31 22:00:00 28.8 8 Sudoeste 10 Sudoeste 0 949.1 0.9 30
2019-08-31 21:00:00 30.3 9 Oeste 12 Oeste 0 948.6 0.4 28
2019-08-31 20:00:00 32.5 8 Noroeste 18 Noroeste 0 948.2 -0.6 23
2019-08-31 19:00:00 33.2 5 Noroeste 19 Noroeste 0 948.2 -1.3 23
2019-08-31 18:00:00 34.2 10 Noroeste 21 Noroeste 0 948.2 -2.1 22
2019-08-31 17:00:00 34.2 10 Noroeste 25 Noroeste 0 948.8 -2.1 22
2019-08-31 16:00:00 34 11 Noroeste 22 Noroeste 0 949.5 -2.1 23
2019-08-31 15:00:00 33.5 8 Norte 24 Norte 0 950.3 -1.6 25
2019-08-31 14:00:00 32.3 8 Noroeste 19 Norte 0 950.9 -0.8 28
2019-08-31 13:00:00 31.1 6 Norte 16 Norte 0 951.6 0 31
2019-08-31 12:00:00 29.6 5 Nordeste 14 Este 0 951.9 0.4 34
2019-08-31 11:00:00 28.3 8 Este 15 Este 0 951.7 0.5 37
2019-08-31 10:00:00 26.6 8 Este 14 Este 0 951.6 0.8 41
2019-08-31 09:00:00 24.1 5 Sudeste 12 Sur 0 951.5 0.7 45
2019-08-31 08:00:00 20.4 4 Sur 5 Sudoeste 0 951.2 0.5 58
2019-08-31 07:00:00 20.9 2 Sudoeste 8 Sur 0 950.8 0.1 57
2019-08-31 06:00:00 21.7 0 Calma 9 Oeste 0 950.8 -0.4 54
2019-08-31 05:00:00 24.3 4 Sudoeste 27 Sudeste 0 950.7 -1.1 43
2019-08-31 04:00:00 25.9 9 Sur 34 Sur 0 950.7 -2 38
2019-08-31 03:00:00 26.2 20 Sur 40 Sudeste 0 951.2 -2.7 41
2019-08-31 02:00:00 26 19 Sur 33 Sudeste 0 951.8 -2.3 42
2019-08-31 01:00:00 25.9 13 Sudeste 32 Sudeste 0 952.7 1.6 39
2019-08-31 00:00:00 24.9 13 Sudeste 30 Este 0 953.9 3.6 46
2019-08-30 23:00:00 26.5 15 Norte 59 Norte 0 954.1 4.1 43
2019-08-30 22:00:00 30.2 10 Oeste 26 Oeste 0 951.1 0.9 30
2019-08-30 21:00:00 31.4 10 Sudoeste 21 Oeste 0 950.3 0.1 27
2019-08-30 20:00:00 33.6 9 Oeste 20 Oeste 0 950 -0.9 24
2019-08-30 19:00:00 34.2 9 Noroeste 18 Norte 0 950.2 -1.4 22
2019-08-30 18:00:00 35 7 Oeste 21 Noroeste 0 950.2 -2.2 21
2019-08-30 17:00:00 35.3 6 Norte 23 Norte 0 950.9 -2.3 22
2019-08-30 16:00:00 35.1 6 Este 19 Norte 0 951.6 -2.4 23
2019-08-30 15:00:00 34.5 8 Nordeste 18 Este 0 952.4 -1.9 25
2019-08-30 14:00:00 33.1 6 Este 14 Este 0 953.2 -1.1 28
2019-08-30 13:00:00 31.3 6 Nordeste 17 Norte 0 954 -0.4 31
2019-08-30 12:00:00 29.8 5 Este 13 Nordeste 0 954.3 0 34
2019-08-30 11:00:00 28.1 6 Este 16 Sudeste 0 954.3 0.3 35
2019-08-30 10:00:00 25.6 4 Este 8 Este 0 954.4 0.7 42
2019-08-30 09:00:00 25.3 4 Este 10 Sudeste 0 954.3 0.6 41
2019-08-30 08:00:00 23.7 9 Sudeste 17 Sur 0 954 0.4 43
2019-08-30 07:00:00 22.3 9 Sur 13 Sur 0 953.7 0.1 47
2019-08-30 06:00:00 21.7 5 Sudoeste 8 Oeste 0 953.7 -0.3 48
2019-08-30 05:00:00 22.4 3 Norte 6 Noroeste 0 953.6 -0.4 48
2019-08-30 04:00:00 22.7 2 Sudoeste 6 Sur 0 953.6 0 48
2019-08-30 03:00:00 24.1 3 Sudoeste 10 Sudoeste 0 954 0.4 42
2019-08-30 02:00:00 25.1 7 Oeste 11 Oeste 0 954 1 39
2019-08-30 01:00:00 25.9 5 Sudoeste 10 Oeste 0 953.6 1 36
2019-08-30 00:00:00 26.6 5 Sudoeste 11 Sur 0 953.6 1.5 35
2019-08-29 23:00:00 28.1 10 Sur 21 Sur 0 953 1.5 34
2019-08-29 22:00:00 29.4 14 Sudoeste 30 Sudoeste 0 952.6 1.4 29
2019-08-29 21:00:00 30.3 14 Oeste 32 Noroeste 0 952.1 0.8 30
2019-08-29 20:00:00 32.1 15 Oeste 26 Noroeste 0 951.5 -0.1 28
2019-08-29 19:00:00 33.6 7 Noroeste 20 Noroeste 0 951.2 -1 25
2019-08-29 18:00:00 33.9 7 Noroeste 19 Noroeste 0 951.3 -1.3 25
2019-08-29 17:00:00 34.5 11 Norte 19 Noroeste 0 951.6 -1.4 25
2019-08-29 16:00:00 33.7 6 Nordeste 25 Noroeste 0 952.2 -1.1 26
2019-08-29 15:00:00 33.7 8 Norte 20 Norte 0 952.6 -0.8 27
2019-08-29 14:00:00 32.8 9 Norte 23 Noroeste 0 953 -0.4 29
2019-08-29 13:00:00 30.9 5 Nordeste 15 Sudeste 0 953.3 0.5 31
2019-08-29 12:00:00 29 6 Sudeste 13 Sudeste 0 953.4 0.7 34
2019-08-29 11:00:00 27.4 8 Norte 11 Nordeste 0 953.4 1 38
2019-08-29 10:00:00 25.2 2 Noroeste 13 Sudeste 0 952.8 0.7 42
2019-08-29 09:00:00 23.9 3 Sudeste 5 Sudeste 0 952.7 1 43
2019-08-29 08:00:00 23.7 5 Sudeste 9 Sur 0 952.4 0.7 44
2019-08-29 07:00:00 24.2 6 Sur 17 Sur 0 952.1 0.3 42
2019-08-29 06:00:00 24.2 3 Oeste 18 Sur 0 951.7 0.3 39
2019-08-29 05:00:00 24.7 6 Sudeste 15 Sur 0 951.7 0.3 38
2019-08-29 04:00:00 24.5 3 Sur 18 Sur 0 951.8 0.4 38
2019-08-29 03:00:00 26.6 15 Sur 28 Sur 0 951.4 0.3 34
2019-08-29 02:00:00 26.8 17 Sur 24 Sur 0 951.4 0.6 33
2019-08-29 01:00:00 26.5 9 Sur 14 Sur 0 951.4 1.2 32
2019-08-29 00:00:00 27.4 10 Sur 15 Sur 0 951.1 1.4 32
2019-08-28 23:00:00 27.4 9 Sur 13 Sur 0 950.8 1.5 31
2019-08-28 22:00:00 27.8 9 Sur 13 Sur 0 950.2 0.8 30
2019-08-28 21:00:00 28.9 6 Sudoeste 10 Norte 0 949.7 0.1 29
2019-08-28 20:00:00 31 3 Norte 14 Norte 0 949.3 -0.5 26
2019-08-28 19:00:00 31.7 10 Noroeste 21 Noroeste 0 949.4 -0.9 26
2019-08-28 18:00:00 32.9 11 Norte 22 Norte 0 949.6 -1.1 24
2019-08-28 17:00:00 32.9 10 Norte 20 Norte 0 949.8 -1.6 25
2019-08-28 16:00:00 32.2 8 Este 23 Norte 0 950.3 -1.5 26
2019-08-28 15:00:00 32 5 Nordeste 18 Nordeste 0 950.7 -1.5 26
2019-08-28 14:00:00 30.7 8 Norte 19 Norte 0 951.4 -0.6 31
2019-08-28 13:00:00 29.7 7 Norte 19 Nordeste 0 951.8 -0.1 36
2019-08-28 12:00:00 28.4 5 Nordeste 11 Sudeste 0 952.2 0.6 37
2019-08-28 11:00:00 26.4 5 Nordeste 10 Norte 0 952 0.6 42
2019-08-28 10:00:00 24 4 Nordeste 8 Nordeste 0 951.9 0.6 48
2019-08-28 09:00:00 22 3 Norte 4 Norte 0 951.6 0.7 53
2019-08-28 08:00:00 19.9 0 Calma 5 Sudoeste 0 951.4 0.7 57
2019-08-28 07:00:00 20 3 Oeste 6 Oeste 0 951.3 0.5 57
2019-08-28 06:00:00 20.9 4 Sudeste 7 Sur 0 950.9 -0.1 54
2019-08-28 05:00:00 21 4 Sur 8 Sudoeste 0 950.7 -0.7 54
2019-08-28 04:00:00 22 2 Oeste 8 Oeste 0 950.8 -0.4 52
2019-08-28 03:00:00 23.7 2 Nordeste 19 Oeste 0 951 0 46
2019-08-28 02:00:00 23.6 4 Oeste 13 Oeste 0 951.4 0.8 48
2019-08-28 01:00:00 24.1 8 Oeste 14 Oeste 0 951.2 1 46
2019-08-28 00:00:00 24.3 10 Oeste 18 Oeste 0 951 1.3 44
2019-08-27 23:00:00 25.5 9 Oeste 17 Oeste 0 950.6 1.4 39
2019-08-27 22:00:00 25.6 9 Oeste 15 Oeste 0 950.2 1.3 37
2019-08-27 21:00:00 26.6 9 Oeste 17 Oeste 0 949.7 0.8 35
2019-08-27 20:00:00 28.1 12 Noroeste 23 Noroeste 0 949.2 0.2 33
2019-08-27 19:00:00 28.7 11 Noroeste 30 Norte 0 948.9 -0.6 33
2019-08-27 18:00:00 29.4 12 Noroeste 22 Norte 0 948.9 -1.3 30
2019-08-27 17:00:00 29.9 7 Noroeste 28 Norte 0 949 -1.3 31
2019-08-27 16:00:00 28.9 13 Norte 24 Norte 0 949.5 -1.4 33
2019-08-27 15:00:00 27.7 14 Noroeste 29 Norte 0 950.2 -0.8 41
2019-08-27 14:00:00 26.7 14 Noroeste 26 Norte 0 950.3 -0.7 47
2019-08-27 13:00:00 25.7 13 Noroeste 26 Noroeste 0 950.9 0.2 50
2019-08-27 12:00:00 24.4 14 Noroeste 25 Noroeste 0 951 0.8 57
2019-08-27 11:00:00 23.2 15 Noroeste 24 Noroeste 0 951 1.1 64
2019-08-27 10:00:00 21.4 4 Norte 10 Noroeste 0 950.7 1.2 69
2019-08-27 09:00:00 19.8 5 Este 11 Este 0 950.2 0.9 75
2019-08-27 08:00:00 18.9 4 Oeste 9 Sudoeste 0 949.9 0.6 73
2019-08-27 07:00:00 19.1 4 Sudoeste 6 Sudoeste 0 949.5 0.2 75
2019-08-27 06:00:00 19.7 0 Calma 9 Sudeste 0 949.3 -0.2 73
2019-08-27 05:00:00 20.7 2 Este 21 Oeste 0 949.3 -0.6 69
2019-08-27 04:00:00 20.6 12 Oeste 21 Oeste 0 949.3 -0.5 73
2019-08-27 03:00:00 20.8 10 Noroeste 16 Oeste 0 949.5 0.4 64
2019-08-27 02:00:00 20.8 6 Noroeste 19 Noroeste 0 949.9 1.3 63
2019-08-27 01:00:00 21.3 14 Oeste 32 Oeste 0 949.8 1.8 62
2019-08-27 00:00:00 23 6 Norte 36 Oeste 0 949.1 2.1 59
2019-08-26 23:00:00 25.4 17 Sudoeste 40 Oeste 0 948.6 2.8 42
2019-08-26 22:00:00 23.6 23 Oeste 50 Oeste 0 948 2.3 59
2019-08-26 21:00:00 25.7 23 Oeste 41 Noroeste 0 947 0.6 50
2019-08-26 20:00:00 28.2 5 Oeste 11 Noroeste 0 945.8 -1.1 41
2019-08-26 19:00:00 29.2 8 Noroeste 21 Noroeste 0 945.7 -1.7 40
2019-08-26 18:00:00 29 6 Noroeste 14 Noroeste 0 946.4 -1.7 42
2019-08-26 17:00:00 29.4 5 Norte 15 Norte 0 946.9 -1.6 41
2019-08-26 16:00:00 28.1 8 Norte 18 Norte 0 947.4 -1.7 45
2019-08-26 15:00:00 28.1 6 Nordeste 15 Nordeste 0 948.1 -1.2 46
2019-08-26 14:00:00 27.1 6 Sudeste 17 Norte 0 948.5 -0.8 49
2019-08-26 13:00:00 26.3 8 Nordeste 23 Noroeste 0 949.1 0.3 53
2019-08-26 12:00:00 26.3 6 Este 15 Este 0 949.3 0.9 50
2019-08-26 11:00:00 25.8 6 Nordeste 13 Noroeste 0 949.3 1.3 53
2019-08-26 10:00:00 24.1 4 Nordeste 11 Norte 0 948.8 1.1 61
2019-08-26 09:00:00 21.9 2 Oeste 11 Oeste 0 948.4 1 68
2019-08-26 08:00:00 20.7 6 Oeste 12 Noroeste 0 948 0.3 70
2019-08-26 07:00:00 21.1 6 Oeste 10 Oeste 0 947.7 -0.1 69
2019-08-26 06:00:00 21.4 5 Sudeste 13 Noroeste 0 947.4 -0.9 66
2019-08-26 05:00:00 21.9 6 Noroeste 23 Oeste 0 947.7 -0.4 63
2019-08-26 04:00:00 22.6 9 Oeste 18 Oeste 0 947.8 -0.2 59
2019-08-26 03:00:00 24.7 6 Oeste 32 Sudeste 0 948.3 -0.1 51
2019-08-26 02:00:00 25.5 19 Sudeste 36 Este 0 948.1 0.4 49
2019-08-26 01:00:00 26 12 Sudeste 28 Sudeste 0 948 0.5 49
2019-08-26 00:00:00 26.7 13 Sudeste 40 Sudeste 0 948.4 1.9 46
2019-08-25 23:00:00 27.5 25 Sudeste 41 Sudeste 0 947.7 1.7 45
2019-08-25 22:00:00 28.3 2 Norte 25 Oeste 0 947.5 1.4 43
2019-08-25 21:00:00 29.3 17 Oeste 33 Oeste 0 946.5 -0.3 42
2019-08-25 20:00:00 33 6 Noroeste 11 Oeste 0 946 -1.1 23
2019-08-25 19:00:00 33.4 5 Noroeste 15 Norte 0 946.1 -1.6 22
2019-08-25 18:00:00 33.5 4 Norte 13 Noroeste 0 946.8 -1.6 22
2019-08-25 17:00:00 33.6 2 Nordeste 21 Norte 0 947.1 -2 23
2019-08-25 16:00:00 33.8 6 Norte 21 Norte 0 947.7 -2.3 24
2019-08-25 15:00:00 33.9 7 Norte 20 Norte 0 948.4 -2.3 27
2019-08-25 14:00:00 31.7 5 Este 17 Nordeste 0 949.1 -2 32
2019-08-25 13:00:00 29.5 7 Este 15 Sudeste 0 950 -1.3 38
2019-08-25 12:00:00 28.2 7 Nordeste 21 Este 0 950.7 -0.5 41
2019-08-25 11:00:00 26.4 9 Este 17 Este 0 951.1 0 46
2019-08-25 10:00:00 24.9 7 Sudeste 17 Sudeste 0 951.3 0.5 50
2019-08-25 09:00:00 23 6 Este 10 Este 0 951.2 0.6 55
2019-08-25 08:00:00 20.3 4 Sudoeste 8 Sur 0 951.1 0.2 66
2019-08-25 07:00:00 20.7 4 Sur 11 Sudeste 0 950.8 -0.3 63
2019-08-25 06:00:00 21.8 9 Sudeste 15 Sudeste 0 950.6 -0.3 57
2019-08-25 05:00:00 22.5 4 Sudeste 8 Sudeste 0 950.9 -0.2 50
2019-08-25 04:00:00 23.8 5 Sudeste 16 Sudeste 0 951.1 0.3 47
2019-08-25 03:00:00 25.3 9 Sur 19 Noroeste 0 950.9 0.2 44
2019-08-25 02:00:00 26.8 8 Noroeste 26 Sur 0 951.1 1 41
2019-08-25 01:00:00 27.6 15 Sur 26 Sudeste 0 950.8 1.7 43
2019-08-25 00:00:00 27.9 12 Sudeste 21 Sudeste 0 950.7 1.9 38
2019-08-24 23:00:00 29.2 6 Sur 24 Sudeste 0 950.1 1.3 31
2019-08-24 22:00:00 29.9 9 Sudoeste 14 Oeste 0 949.1 0 21
2019-08-24 21:00:00 30.7 6 Sudoeste 10 Oeste 0 948.8 -0.6 22
2019-08-24 20:00:00 33.6 3 Noroeste 17 Norte 0 948.8 -0.9 19
2019-08-24 19:00:00 34.1 9 Norte 19 Norte 0 949.1 -1.2 19
2019-08-24 18:00:00 34.9 11 Norte 23 Norte 0 949.4 -1.5 18
2019-08-24 17:00:00 35.2 6 Nordeste 18 Norte 0 949.7 -1.8 19
2019-08-24 16:00:00 34.8 9 Norte 19 Norte 0 950.3 -1.7 20
2019-08-24 15:00:00 34.1 6 Nordeste 14 Nordeste 0 950.9 -1.5 23
2019-08-24 14:00:00 32.2 6 Este 14 Este 0 951.5 -1 27
2019-08-24 13:00:00 30.4 8 Norte 17 Norte 0 952 -0.3 32
2019-08-24 12:00:00 28.9 6 Nordeste 15 Este 0 952.4 0.2 35
2019-08-24 11:00:00 26.8 7 Este 17 Sudeste 0 952.5 0.4 40
2019-08-24 10:00:00 24.9 10 Este 19 Este 0 952.3 0.4 43
2019-08-24 09:00:00 23 10 Este 15 Este 0 952.2 0.3 49
2019-08-24 08:00:00 21.1 0 Calma 12 Sur 0 952.1 0.3 53
2019-08-24 07:00:00 21 4 Sudeste 9 Sudeste 0 951.9 0.2 53
2019-08-24 06:00:00 21.3 3 Sur 7 Sur 0 951.9 0.5 52
2019-08-24 05:00:00 22.6 5 Sudoeste 12 Sudeste 0 951.8 0.2 48
2019-08-24 04:00:00 24.9 7 Sur 27 Sudeste 0 951.7 0.5 46
2019-08-24 03:00:00 25.6 17 Sur 28 Sur 0 951.4 0.2 45
2019-08-24 02:00:00 26.3 14 Sudeste 29 Sur 0 951.6 1.3 44
2019-08-24 01:00:00 27.2 13 Sur 24 Sur 0 951.2 1.5 41
2019-08-24 00:00:00 27.8 8 Sudoeste 27 Sudeste 0 951.2 1.8 33
2019-08-23 23:00:00 28.7 13 Sur 24 Sur 0 950.3 1 34
2019-08-23 22:00:00 28.1 3 Sudoeste 8 Sudoeste 0 949.7 0.2 25
2019-08-23 21:00:00 30.7 3 Sudoeste 15 Nordeste 0 949.4 -0.3 22
2019-08-23 20:00:00 33 4 Nordeste 14 Este 0 949.3 -0.7 19
2019-08-23 19:00:00 33.8 5 Nordeste 20 Nordeste 0 949.5 -0.9 19
2019-08-23 18:00:00 34.8 12 Norte 22 Nordeste 0 949.7 -1.5 18
2019-08-23 17:00:00 34.8 6 Sudeste 17 Sudeste 0 950 -1.8 20
2019-08-23 16:00:00 34.7 4 Noroeste 19 Norte 0 950.4 -1.8 20
2019-08-23 15:00:00 33.6 5 Este 15 Noroeste 0 951.2 -1.5 22
2019-08-23 14:00:00 32.6 7 Norte 16 Norte 0 951.8 -0.9 23
2019-08-23 13:00:00 31.6 8 Este 19 Este 0 952.2 -0.3 20
2019-08-23 12:00:00 30.1 9 Este 29 Sudeste 0 952.7 0.4 23
2019-08-23 11:00:00 27.7 15 Sudeste 36 Sudeste 0 952.7 0.8 27
2019-08-23 10:00:00 26.1 17 Sudeste 36 Sudeste 0 952.5 1.1 27
2019-08-23 09:00:00 24.4 15 Sudeste 31 Sudeste 0 952.3 0.7 30
2019-08-23 08:00:00 24.3 15 Sudeste 28 Sudeste 0 951.9 0.3 28
2019-08-23 07:00:00 24.6 13 Sudeste 31 Este 0 951.4 -0.3 27
2019-08-23 06:00:00 24.2 12 Sudeste 32 Sudeste 0 951.6 -0.2 35
2019-08-23 05:00:00 24.6 15 Sudeste 33 Sudeste 0 951.6 -0.1 37
2019-08-23 04:00:00 24.7 19 Sudeste 53 Sudeste 0 951.7 0.1 43
2019-08-23 03:00:00 25.3 26 Sudeste 47 Sudeste 0 951.8 0.3 45
2019-08-23 02:00:00 25.9 27 Sudeste 51 Sudeste 0 951.7 0.8 45
2019-08-23 01:00:00 26.5 23 Sudeste 42 Sudeste 0 951.6 1.3 45
2019-08-23 00:00:00 27.3 18 Sudeste 32 Sudeste 0 951.5 1.9 45